Family Jewel — WDJ3644 — position and weather

sailwx.info

Track history (hours):
 
Tides and Currents Weather Stations Pressure Air Temp Water Temp Dewpoint Dewpoint Depression Visibility Wind Speed Wind Dir Waves Ship Positions

Family Jewel

Owner: Family Jewel II LLC, Hallandale Beach, FL. More information available from US FCC via Universal Licensing System and Coast Guard Vessel Documentation Center.

Last reported at 2018-Jul-08 15:24 UTC. Time now 2018-Jul-21 22:36 UTC.
Position N 41°14' W 072°18'.
Warning: this ship's position is 13 days out of date.

Length 26 m.

Type: Pleasure craft. MMSI: 367769960.

Date/timePositionNaut miles runAvg speedWind from/ knotsBaromVisibWave heightAir tempDewpointWater temp
2018-Jul-08 15:24N 41°14' W 072°18'3 8.4
2018-Jul-08 15:00N 41°16' W 072°20'0 0.0
2018-Jul-07 21:07N 41°16' W 072°20'1 7.1
2018-Jul-07 21:00N 41°16' W 072°21'5 9.5
2018-Jul-07 20:30N 41°14' W 072°27'74 2.5
2018-Jul-06 15:21N 40°46' W 073°57'410.0
2018-Jul-06 15:00N 40°42' W 073°59'3 5.9
2018-Jul-06 14:30N 40°43' W 074°03'0 0.0
2018-Jul-06 14:00N 40°43' W 074°03'0 0.0
2018-Jul-06 13:30N 40°43' W 074°03'0 0.0
2018-Jul-06 12:57N 40°43' W 074°03'0 0.0
2018-Jul-06 12:30N 40°43' W 074°03'0 0.0
2018-Jul-06 11:57N 40°43' W 074°03'0 0.0
2018-Jul-06 11:30N 40°43' W 074°03'0 0.0
2018-Jul-06 11:00N 40°43' W 074°03'0 0.0
2018-Jul-06 10:30N 40°43' W 074°03'0 0.0
2018-Jul-06 10:00N 40°43' W 074°03'0 0.0
2018-Jul-06 09:30N 40°43' W 074°03'0 0.0
2018-Jul-06 09:00N 40°43' W 074°03'0 0.0
2018-Jul-06 08:27N 40°43' W 074°03'0 0.0
2018-Jul-06 08:00N 40°43' W 074°03'0 0.0
2018-Jul-06 07:30N 40°43' W 074°03'0 0.0
2018-Jul-06 07:00N 40°43' W 074°03'0 0.0
2018-Jul-06 06:30N 40°43' W 074°03'0 0.0
2018-Jul-06 06:00N 40°43' W 074°03'0 0.0
2018-Jul-06 05:30N 40°43' W 074°03'0 0.0
2018-Jul-06 05:00N 40°43' W 074°03'0 0.0
2018-Jul-06 04:27N 40°43' W 074°03'0 0.0
2018-Jul-06 04:00N 40°43' W 074°03'0 0.0
2018-Jul-06 03:30N 40°43' W 074°03'0 0.0
2018-Jul-06 02:57N 40°43' W 074°03'0 0.0
2018-Jul-06 02:27N 40°43' W 074°03'0 0.0
2018-Jul-06 02:00N 40°43' W 074°03'0 0.0
2018-Jul-06 01:30N 40°43' W 074°03'0 0.0
2018-Jul-06 01:00N 40°43' W 074°03'0 0.0
2018-Jul-06 00:30N 40°43' W 074°03'0 0.0
2018-Jul-06 00:00N 40°43' W 074°03'0 0.0
2018-Jul-05 23:30N 40°43' W 074°03'0 0.0
2018-Jul-05 23:00N 40°43' W 074°03'0 0.0
2018-Jul-05 22:30N 40°43' W 074°03'0 0.0
2018-Jul-05 22:00N 40°43' W 074°03'0 0.0
2018-Jul-05 21:30N 40°43' W 074°03'0 0.0
2018-Jul-05 21:00N 40°43' W 074°03'0 0.0
2018-Jul-05 20:30N 40°43' W 074°03'0 0.0
2018-Jul-05 20:00N 40°43' W 074°03'0 0.0
2018-Jul-05 19:30N 40°43' W 074°03'0 0.0
2018-Jul-05 19:00N 40°43' W 074°03'0 0.0
2018-Jul-05 18:30N 40°43' W 074°03'0 0.0
2018-Jul-05 18:00N 40°43' W 074°03'0 0.0
2018-Jul-05 17:30N 40°43' W 074°03'0 0.0
2018-Jul-05 17:00N 40°43' W 074°03'0 0.0
2018-Jul-05 16:30N 40°43' W 074°03'0 0.0
2018-Jul-05 16:00N 40°43' W 074°03'0 0.0
2018-Jul-05 15:30N 40°43' W 074°03'0 0.0
2018-Jul-05 15:00N 40°43' W 074°03'0 0.0
2018-Jul-05 14:00N 40°43' W 074°03'0 0.0
2018-Jul-05 13:27N 40°43' W 074°03'0 0.0
2018-Jul-05 13:00N 40°43' W 074°03'0 0.0
2018-Jul-05 12:30N 40°43' W 074°03'0 0.0
2018-Jul-05 12:00N 40°43' W 074°03'0 0.0
2018-Jul-05 11:30N 40°43' W 074°03'0 0.0
2018-Jul-05 11:00N 40°43' W 074°03'0 0.0
2018-Jul-05 10:24N 40°43' W 074°03'0 0.0
2018-Jul-05 10:00N 40°43' W 074°03'0 0.0
2018-Jul-05 09:30N 40°43' W 074°03'0 0.0
2018-Jul-05 09:00N 40°43' W 074°03'0 0.0
2018-Jul-05 08:30N 40°43' W 074°03'0 0.0
2018-Jul-05 08:00N 40°43' W 074°03'0 0.0
2018-Jul-05 07:29N 40°43' W 074°03'0 0.0
2018-Jul-05 06:59N 40°43' W 074°03'0 0.0
2018-Jul-05 06:29N 40°43' W 074°03'0 0.0
2018-Jul-05 05:59N 40°43' W 074°03'0 0.0
2018-Jul-05 05:29N 40°43' W 074°03'0 0.0
2018-Jul-05 04:59N 40°43' W 074°03'0 0.0
2018-Jul-05 04:29N 40°43' W 074°03'0 0.0
2018-Jul-05 03:59N 40°43' W 074°03'0 0.0
2018-Jul-05 03:29N 40°43' W 074°03'0 0.0
2018-Jul-05 02:59N 40°43' W 074°03'1 1.9
2018-Jul-05 02:30N 40°43' W 074°02'0 0.9
2018-Jul-05 02:00N 40°42' W 074°02'0 0.5
2018-Jul-05 01:30N 40°42' W 074°02'0 0.3
2018-Jul-05 00:58N 40°42' W 074°02'0 0.0
2018-Jul-05 00:28N 40°42' W 074°02'0 0.0
2018-Jul-04 23:58N 40°42' W 074°02'0 0.0
2018-Jul-04 23:28N 40°42' W 074°02'0 0.0
2018-Jul-04 22:58N 40°42' W 074°02'0 0.1
2018-Jul-04 22:29N 40°42' W 074°02'0 0.1
2018-Jul-04 21:56N 40°42' W 074°02'0 0.0
2018-Jul-04 21:29N 40°42' W 074°02'0 0.0
2018-Jul-04 20:59N 40°42' W 074°02'0 0.1
2018-Jul-04 20:30N 40°42' W 074°02'1 1.3
2018-Jul-04 20:00N 40°43' W 074°03'0 0.0
2018-Jul-04 19:30N 40°43' W 074°03'0 0.0
2018-Jul-04 19:00N 40°43' W 074°03'0 0.0
2018-Jul-04 18:30N 40°43' W 074°03'0 0.0
2018-Jul-04 17:59N 40°43' W 074°03'0 0.0
2018-Jul-04 17:29N 40°43' W 074°03'0 0.0
2018-Jul-04 16:59N 40°43' W 074°03'0 0.0
2018-Jul-04 16:29N 40°43' W 074°03'0 0.0
2018-Jul-04 15:59N 40°43' W 074°03'0 0.0
2018-Jul-04 15:29N 40°43' W 074°03'0 0.0
2018-Jul-04 14:59N 40°43' W 074°03'0 0.0
2018-Jul-04 14:29N 40°43' W 074°03'0 0.0
2018-Jul-04 13:59N 40°43' W 074°03'0 0.0
2018-Jul-04 13:29N 40°43' W 074°03'0 0.0
2018-Jul-04 12:56N 40°43' W 074°03'0 0.0
2018-Jul-04 12:29N 40°43' W 074°03'0 0.0
2018-Jul-04 11:59N 40°43' W 074°03'0 0.0
2018-Jul-04 11:29N 40°43' W 074°03'0 0.0
2018-Jul-04 10:59N 40°43' W 074°03'0 0.0
2018-Jul-04 10:29N 40°43' W 074°03'0 0.0
2018-Jul-04 09:59N 40°43' W 074°03'0 0.0
2018-Jul-04 09:29N 40°43' W 074°03'0 0.0
2018-Jul-04 08:59N 40°43' W 074°03'0 0.0
2018-Jul-04 08:29N 40°43' W 074°03'0 0.0
2018-Jul-04 07:59N 40°43' W 074°03'0 0.0
2018-Jul-04 07:29N 40°43' W 074°03'0 0.0
2018-Jul-04 06:59N 40°43' W 074°03'0 0.0
2018-Jul-04 06:29N 40°43' W 074°03'0 0.0
2018-Jul-04 05:59N 40°43' W 074°03'0 0.0
2018-Jul-04 05:26N 40°43' W 074°03'0 0.0
2018-Jul-04 04:59N 40°43' W 074°03'0 0.0
2018-Jul-04 04:29N 40°43' W 074°03'0 0.0
2018-Jul-04 03:59N 40°43' W 074°03'0 0.0
2018-Jul-04 03:29N 40°43' W 074°03'0 0.0
2018-Jul-04 02:59N 40°43' W 074°03'0 0.0
2018-Jul-04 02:29N 40°43' W 074°03'0 0.0
2018-Jul-04 01:59N 40°43' W 074°03'0 0.0
2018-Jul-04 01:29N 40°43' W 074°03'0 0.0
2018-Jul-04 00:59N 40°43' W 074°03'0 0.0
2018-Jul-04 00:29N 40°43' W 074°03'0 0.0
2018-Jul-03 23:59N 40°43' W 074°03'0 0.0
2018-Jul-03 23:29N 40°43' W 074°03'0 0.0
2018-Jul-03 22:59N 40°43' W 074°03'0 0.0
2018-Jul-03 22:29N 40°43' W 074°03'0 0.0
2018-Jul-03 21:59N 40°43' W 074°03'0 0.0
2018-Jul-03 21:29N 40°43' W 074°03'0 0.0
2018-Jul-03 20:59N 40°43' W 074°03'0 0.0
2018-Jul-03 20:29N 40°43' W 074°03'0 0.0
2018-Jul-03 19:59N 40°43' W 074°03'0 0.0
2018-Jul-03 19:29N 40°43' W 074°03'0 0.0
2018-Jul-03 18:59N 40°43' W 074°03'0 0.0
2018-Jul-03 18:29N 40°43' W 074°03'0 0.0
2018-Jul-03 17:53N 40°43' W 074°03'0 0.0
2018-Jul-03 17:29N 40°43' W 074°03'0 0.0
2018-Jul-03 16:59N 40°43' W 074°03'0 0.0
2018-Jul-03 16:29N 40°43' W 074°03'0 0.0
2018-Jul-03 15:59N 40°43' W 074°03'0 0.0
2018-Jul-03 15:29N 40°43' W 074°03'0 0.0
2018-Jul-03 14:59N 40°43' W 074°03'0 0.0
2018-Jul-03 14:29N 40°43' W 074°03'0 0.0
2018-Jul-03 13:59N 40°43' W 074°03'0 0.0
2018-Jul-03 13:26N 40°43' W 074°03'0 0.0
2018-Jul-03 12:59N 40°43' W 074°03'0 0.0
2018-Jul-03 12:29N 40°43' W 074°03'0 0.0
2018-Jul-03 11:59N 40°43' W 074°03'0 0.0
2018-Jul-03 11:29N 40°43' W 074°03'0 0.0
2018-Jul-03 10:59N 40°43' W 074°03'0 0.0
2018-Jul-03 10:29N 40°43' W 074°03'0 0.0
2018-Jul-03 09:58N 40°43' W 074°03'0 0.0
2018-Jul-03 09:29N 40°43' W 074°03'0 0.0
2018-Jul-03 08:58N 40°43' W 074°03'0 0.0
2018-Jul-03 08:28N 40°43' W 074°03'0 0.0
2018-Jul-03 07:58N 40°43' W 074°03'0 0.0
2018-Jul-03 07:25N 40°43' W 074°03'0 0.0
2018-Jul-03 06:58N 40°43' W 074°03'0 0.0
2018-Jul-03 06:28N 40°43' W 074°03'0 0.0
2018-Jul-03 05:58N 40°43' W 074°03'0 0.0
2018-Jul-03 05:28N 40°43' W 074°03'0 0.0
2018-Jul-03 04:55N 40°43' W 074°03'0 0.0
2018-Jul-03 04:28N 40°43' W 074°03'0 0.0
2018-Jul-03 03:58N 40°43' W 074°03'0 0.0
2018-Jul-03 03:28N 40°43' W 074°03'0 0.0
2018-Jul-03 02:58N 40°43' W 074°03'0 0.0
2018-Jul-03 02:28N 40°43' W 074°03'0 0.0
2018-Jul-03 01:58N 40°43' W 074°03'0 0.0
2018-Jul-03 01:28N 40°43' W 074°03'0 0.0
2018-Jul-03 00:58N 40°43' W 074°03'0 0.0
2018-Jul-03 00:28N 40°43' W 074°03'0 0.0
2018-Jul-02 23:58N 40°43' W 074°03'0 0.0
2018-Jul-02 23:28N 40°43' W 074°03'0 0.0
2018-Jul-02 22:58N 40°43' W 074°03'0 0.0
2018-Jul-02 22:28N 40°43' W 074°03'0 0.0
2018-Jul-02 21:58N 40°43' W 074°03'0 0.0
2018-Jul-02 21:28N 40°43' W 074°03'0 0.0
2018-Jul-02 21:00N 40°43' W 074°03'4 5.2
2018-Jul-02 20:19N 40°46' W 074°00'3 8.6
2018-Jul-02 20:00N 40°43' W 074°01'1 2.0
2018-Jul-02 19:30N 40°42' W 074°02'1 1.1
2018-Jul-02 18:59N 40°43' W 074°02'0 0.0
2018-Jul-02 18:29N 40°43' W 074°02'1 1.1
2018-Jul-02 18:00N 40°43' W 074°02'5518.4
2018-Jul-02 15:01N 39°48' W 073°60'219.7
2018-Jul-02 14:56N 39°46' W 074°00'919.8
2018-Jul-02 14:30N 39°38' W 074°05'22 2.7
2018-Jul-02 06:21N 39°23' W 074°26'0 0.0
2018-Jul-02 05:57N 39°23' W 074°26'0 0.0
2018-Jul-02 05:27N 39°23' W 074°26'0 0.0
2018-Jul-02 04:57N 39°23' W 074°26'0 0.0
2018-Jul-02 04:21N 39°23' W 074°26'0 0.0
2018-Jul-02 03:51N 39°23' W 074°26'0 0.0
2018-Jul-01 06:46N 39°23' W 074°26'0 0.0
2018-Jul-01 05:40N 39°23' W 074°26'40 2.9
2018-Jun-30 15:40N 38°53' W 075°01'718.4
2018-Jun-30 15:18N 38°57' W 075°07'618.1
2018-Jun-30 14:58N 39°03' W 075°10'817.7
2018-Jun-30 14:30N 39°10' W 075°16'1018.3
2018-Jun-30 13:57N 39°18' W 075°23'818.9
2018-Jun-30 13:30N 39°25' W 075°31'917.7
2018-Jun-30 13:00N 39°33' W 075°33'815.2
2018-Jun-30 12:30N 39°33' W 075°42'5 9.6
2018-Jun-30 12:00N 39°32' W 075°49'0 0.5
2018-Jun-30 11:28N 39°32' W 075°49'0 0.0
2018-Jun-30 10:58N 39°32' W 075°49'0 0.0
2018-Jun-30 10:28N 39°32' W 075°49'0 0.0
2018-Jun-30 09:58N 39°32' W 075°49'0 0.0
2018-Jun-30 09:28N 39°32' W 075°49'0 0.0
2018-Jun-30 08:58N 39°32' W 075°49'0 0.0
2018-Jun-30 08:28N 39°32' W 075°49'0 0.0
2018-Jun-30 07:58N 39°32' W 075°49'0 0.0
2018-Jun-30 07:28N 39°32' W 075°49'0 0.0
2018-Jun-30 06:58N 39°32' W 075°49'0 0.0
2018-Jun-30 06:28N 39°32' W 075°49'0 0.0
2018-Jun-30 05:58N 39°32' W 075°49'0 0.0
2018-Jun-30 05:28N 39°32' W 075°49'0 0.0
2018-Jun-30 04:55N 39°32' W 075°49'0 0.0
2018-Jun-30 04:28N 39°32' W 075°49'0 0.0
2018-Jun-30 03:58N 39°32' W 075°49'0 0.0
2018-Jun-30 03:25N 39°32' W 075°49'0 0.0
2018-Jun-30 02:58N 39°32' W 075°49'0 0.0
2018-Jun-30 02:28N 39°32' W 075°49'0 0.0
2018-Jun-30 01:58N 39°32' W 075°49'0 0.0
2018-Jun-30 01:28N 39°32' W 075°49'0 0.0
2018-Jun-30 00:58N 39°32' W 075°49'0 0.0
2018-Jun-30 00:28N 39°32' W 075°49'0 0.0
2018-Jun-29 23:58N 39°32' W 075°49'0 0.0
2018-Jun-29 23:28N 39°32' W 075°49'0 0.0
2018-Jun-29 22:58N 39°32' W 075°49'0 0.1
2018-Jun-29 22:28N 39°32' W 075°49'0 0.0
2018-Jun-29 21:58N 39°32' W 075°49'0 0.0
2018-Jun-29 21:28N 39°32' W 075°49'1 2.0
2018-Jun-29 21:00N 39°32' W 075°50'612.5
2018-Jun-29 20:30N 39°29' W 075°57'3018.1
2018-Jun-29 18:52N 39°11' W 076°28'615.0
2018-Jun-29 18:29N 39°15' W 076°34'3 5.2
2018-Jun-29 17:59N 39°17' W 076°36'0 0.0
2018-Jun-29 17:26N 39°17' W 076°36'0 0.0
2018-Jun-29 16:59N 39°17' W 076°36'0 0.0
2018-Jun-29 16:29N 39°17' W 076°36'0 0.0
2018-Jun-29 15:56N 39°17' W 076°36'0 0.0
2018-Jun-29 15:29N 39°17' W 076°36'0 0.0
2018-Jun-29 14:59N 39°17' W 076°36'0 0.0
2018-Jun-29 14:23N 39°17' W 076°36'0 0.0
2018-Jun-29 13:59N 39°17' W 076°36'0 0.0
2018-Jun-29 13:26N 39°17' W 076°36'0 0.0
2018-Jun-29 12:56N 39°17' W 076°36'0 0.0
2018-Jun-29 12:29N 39°17' W 076°36'0 0.0
2018-Jun-29 11:59N 39°17' W 076°36'0 0.0
2018-Jun-29 11:29N 39°17' W 076°36'0 0.0
2018-Jun-29 10:56N 39°17' W 076°36'0 0.0
2018-Jun-29 10:29N 39°17' W 076°36'0 0.0
2018-Jun-29 09:59N 39°17' W 076°36'0 0.0
2018-Jun-29 09:29N 39°17' W 076°36'0 0.0
2018-Jun-29 08:59N 39°17' W 076°36'0 0.0
2018-Jun-29 08:29N 39°17' W 076°36'0 0.0
2018-Jun-29 07:59N 39°17' W 076°36'0 0.0
2018-Jun-29 07:26N 39°17' W 076°36'0 0.0
2018-Jun-29 06:59N 39°17' W 076°36'0 0.0
2018-Jun-29 06:29N 39°17' W 076°36'0 0.0
2018-Jun-29 05:59N 39°17' W 076°36'0 0.0
2018-Jun-29 05:26N 39°17' W 076°36'0 0.0
2018-Jun-29 04:59N 39°17' W 076°36'0 0.0
2018-Jun-29 04:29N 39°17' W 076°36'0 0.0
2018-Jun-29 03:59N 39°17' W 076°36'0 0.0
2018-Jun-29 03:29N 39°17' W 076°36'0 0.0
2018-Jun-29 02:59N 39°17' W 076°36'0 0.0
2018-Jun-29 02:29N 39°17' W 076°36'0 0.0
2018-Jun-29 01:59N 39°17' W 076°36'0 0.0
2018-Jun-29 01:29N 39°17' W 076°36'0 0.0
2018-Jun-29 00:59N 39°17' W 076°36'0 0.0
2018-Jun-29 00:29N 39°17' W 076°36'0 0.0
2018-Jun-28 23:59N 39°17' W 076°36'0 0.0
2018-Jun-28 23:29N 39°17' W 076°36'0 0.0
2018-Jun-28 22:59N 39°17' W 076°36'0 0.0
2018-Jun-28 22:29N 39°17' W 076°36'0 0.0
2018-Jun-28 21:59N 39°17' W 076°36'0 0.0
2018-Jun-28 21:26N 39°17' W 076°36'0 0.0
2018-Jun-28 20:59N 39°17' W 076°36'0 0.0
2018-Jun-28 20:29N 39°17' W 076°36'0 0.0
2018-Jun-28 19:56N 39°17' W 076°36'0 0.0
2018-Jun-28 19:26N 39°17' W 076°36'0 0.0
2018-Jun-28 18:59N 39°17' W 076°36'0 0.0
2018-Jun-28 18:29N 39°17' W 076°36'0 0.0
2018-Jun-28 17:59N 39°17' W 076°36'0 0.0
2018-Jun-28 17:29N 39°17' W 076°36'0 0.0
2018-Jun-28 16:59N 39°17' W 076°36'0 0.0
2018-Jun-28 16:29N 39°17' W 076°36'0 0.0
2018-Jun-28 15:59N 39°17' W 076°36'0 0.0
2018-Jun-28 15:26N 39°17' W 076°36'  
Track history (hours):
 
Tides and Currents Weather Stations Pressure Air Temp Water Temp Dewpoint Dewpoint Depression Visibility Wind Speed Wind Dir Waves Ship Positions

Family Jewel

Owner: Family Jewel II LLC, Hallandale Beach, FL. More information available from US FCC via Universal Licensing System and Coast Guard Vessel Documentation Center.

Last reported at 2018-Jul-08 15:24 UTC. Time now 2018-Jul-21 22:36 UTC.
Position N 41°14' W 072°18'.
Warning: this ship's position is 13 days out of date.

Length 26 m.

Type: Pleasure craft. MMSI: 367769960.

Date/timePositionNaut miles runAvg speedWind from/ knotsBaromVisibWave heightAir tempDewpointWater temp
2018-Jul-08 15:24N 41°14' W 072°18'3 8.4
2018-Jul-08 15:00N 41°16' W 072°20'0 0.0
2018-Jul-07 21:07N 41°16' W 072°20'1 7.1
2018-Jul-07 21:00N 41°16' W 072°21'5 9.5
2018-Jul-07 20:30N 41°14' W 072°27'74 2.5
2018-Jul-06 15:21N 40°46' W 073°57'410.0
2018-Jul-06 15:00N 40°42' W 073°59'3 5.9
2018-Jul-06 14:30N 40°43' W 074°03'0 0.0
2018-Jul-06 14:00N 40°43' W 074°03'0 0.0
2018-Jul-06 13:30N 40°43' W 074°03'0 0.0
2018-Jul-06 12:57N 40°43' W 074°03'0 0.0
2018-Jul-06 12:30N 40°43' W 074°03'0 0.0
2018-Jul-06 11:57N 40°43' W 074°03'0 0.0
2018-Jul-06 11:30N 40°43' W 074°03'0 0.0
2018-Jul-06 11:00N 40°43' W 074°03'0 0.0
2018-Jul-06 10:30N 40°43' W 074°03'0 0.0
2018-Jul-06 10:00N 40°43' W 074°03'0 0.0
2018-Jul-06 09:30N 40°43' W 074°03'0 0.0
2018-Jul-06 09:00N 40°43' W 074°03'0 0.0
2018-Jul-06 08:27N 40°43' W 074°03'0 0.0
2018-Jul-06 08:00N 40°43' W 074°03'0 0.0
2018-Jul-06 07:30N 40°43' W 074°03'0 0.0
2018-Jul-06 07:00N 40°43' W 074°03'0 0.0
2018-Jul-06 06:30N 40°43' W 074°03'0 0.0
2018-Jul-06 06:00N 40°43' W 074°03'0 0.0
2018-Jul-06 05:30N 40°43' W 074°03'0 0.0
2018-Jul-06 05:00N 40°43' W 074°03'0 0.0
2018-Jul-06 04:27N 40°43' W 074°03'0 0.0
2018-Jul-06 04:00N 40°43' W 074°03'0 0.0
2018-Jul-06 03:30N 40°43' W 074°03'0 0.0
2018-Jul-06 02:57N 40°43' W 074°03'0 0.0
2018-Jul-06 02:27N 40°43' W 074°03'0 0.0
2018-Jul-06 02:00N 40°43' W 074°03'0 0.0
2018-Jul-06 01:30N 40°43' W 074°03'0 0.0
2018-Jul-06 01:00N 40°43' W 074°03'0 0.0
2018-Jul-06 00:30N 40°43' W 074°03'0 0.0
2018-Jul-06 00:00N 40°43' W 074°03'0 0.0
2018-Jul-05 23:30N 40°43' W 074°03'0 0.0
2018-Jul-05 23:00N 40°43' W 074°03'0 0.0
2018-Jul-05 22:30N 40°43' W 074°03'0 0.0
2018-Jul-05 22:00N 40°43' W 074°03'0 0.0
2018-Jul-05 21:30N 40°43' W 074°03'0 0.0
2018-Jul-05 21:00N 40°43' W 074°03'0 0.0
2018-Jul-05 20:30N 40°43' W 074°03'0 0.0
2018-Jul-05 20:00N 40°43' W 074°03'0 0.0
2018-Jul-05 19:30N 40°43' W 074°03'0 0.0
2018-Jul-05 19:00N 40°43' W 074°03'0 0.0
2018-Jul-05 18:30N 40°43' W 074°03'0 0.0
2018-Jul-05 18:00N 40°43' W 074°03'0 0.0
2018-Jul-05 17:30N 40°43' W 074°03'0 0.0
2018-Jul-05 17:00N 40°43' W 074°03'0 0.0
2018-Jul-05 16:30N 40°43' W 074°03'0 0.0
2018-Jul-05 16:00N 40°43' W 074°03'0 0.0
2018-Jul-05 15:30N 40°43' W 074°03'0 0.0
2018-Jul-05 15:00N 40°43' W 074°03'0 0.0
2018-Jul-05 14:00N 40°43' W 074°03'0 0.0
2018-Jul-05 13:27N 40°43' W 074°03'0 0.0
2018-Jul-05 13:00N 40°43' W 074°03'0 0.0
2018-Jul-05 12:30N 40°43' W 074°03'0 0.0
2018-Jul-05 12:00N 40°43' W 074°03'0 0.0
2018-Jul-05 11:30N 40°43' W 074°03'0 0.0
2018-Jul-05 11:00N 40°43' W 074°03'0 0.0
2018-Jul-05 10:24N 40°43' W 074°03'0 0.0
2018-Jul-05 10:00N 40°43' W 074°03'0 0.0
2018-Jul-05 09:30N 40°43' W 074°03'0 0.0
2018-Jul-05 09:00N 40°43' W 074°03'0 0.0
2018-Jul-05 08:30N 40°43' W 074°03'0 0.0
2018-Jul-05 08:00N 40°43' W 074°03'0 0.0
2018-Jul-05 07:29N 40°43' W 074°03'0 0.0
2018-Jul-05 06:59N 40°43' W 074°03'0 0.0
2018-Jul-05 06:29N 40°43' W 074°03'0 0.0
2018-Jul-05 05:59N 40°43' W 074°03'0 0.0
2018-Jul-05 05:29N 40°43' W 074°03'0 0.0
2018-Jul-05 04:59N 40°43' W 074°03'0 0.0
2018-Jul-05 04:29N 40°43' W 074°03'0 0.0
2018-Jul-05 03:59N 40°43' W 074°03'0 0.0
2018-Jul-05 03:29N 40°43' W 074°03'0 0.0
2018-Jul-05 02:59N 40°43' W 074°03'1 1.9
2018-Jul-05 02:30N 40°43' W 074°02'0 0.9
2018-Jul-05 02:00N 40°42' W 074°02'0 0.5
2018-Jul-05 01:30N 40°42' W 074°02'0 0.3
2018-Jul-05 00:58N 40°42' W 074°02'0 0.0
2018-Jul-05 00:28N 40°42' W 074°02'0 0.0
2018-Jul-04 23:58N 40°42' W 074°02'0 0.0
2018-Jul-04 23:28N 40°42' W 074°02'0 0.0
2018-Jul-04 22:58N 40°42' W 074°02'0 0.1
2018-Jul-04 22:29N 40°42' W 074°02'0 0.1
2018-Jul-04 21:56N 40°42' W 074°02'0 0.0
2018-Jul-04 21:29N 40°42' W 074°02'0 0.0
2018-Jul-04 20:59N 40°42' W 074°02'0 0.1
2018-Jul-04 20:30N 40°42' W 074°02'1 1.3
2018-Jul-04 20:00N 40°43' W 074°03'0 0.0
2018-Jul-04 19:30N 40°43' W 074°03'0 0.0
2018-Jul-04 19:00N 40°43' W 074°03'0 0.0
2018-Jul-04 18:30N 40°43' W 074°03'0 0.0
2018-Jul-04 17:59N 40°43' W 074°03'0 0.0
2018-Jul-04 17:29N 40°43' W 074°03'0 0.0
2018-Jul-04 16:59N 40°43' W 074°03'0 0.0
2018-Jul-04 16:29N 40°43' W 074°03'0 0.0
2018-Jul-04 15:59N 40°43' W 074°03'0 0.0
2018-Jul-04 15:29N 40°43' W 074°03'0 0.0
2018-Jul-04 14:59N 40°43' W 074°03'0 0.0
2018-Jul-04 14:29N 40°43' W 074°03'0 0.0
2018-Jul-04 13:59N 40°43' W 074°03'0 0.0
2018-Jul-04 13:29N 40°43' W 074°03'0 0.0
2018-Jul-04 12:56N 40°43' W 074°03'0 0.0
2018-Jul-04 12:29N 40°43' W 074°03'0 0.0
2018-Jul-04 11:59N 40°43' W 074°03'0 0.0
2018-Jul-04 11:29N 40°43' W 074°03'0 0.0
2018-Jul-04 10:59N 40°43' W 074°03'0 0.0
2018-Jul-04 10:29N 40°43' W 074°03'0 0.0
2018-Jul-04 09:59N 40°43' W 074°03'0 0.0
2018-Jul-04 09:29N 40°43' W 074°03'0 0.0
2018-Jul-04 08:59N 40°43' W 074°03'0 0.0
2018-Jul-04 08:29N 40°43' W 074°03'0 0.0
2018-Jul-04 07:59N 40°43' W 074°03'0 0.0
2018-Jul-04 07:29N 40°43' W 074°03'0 0.0
2018-Jul-04 06:59N 40°43' W 074°03'0 0.0
2018-Jul-04 06:29N 40°43' W 074°03'0 0.0
2018-Jul-04 05:59N 40°43' W 074°03'0 0.0
2018-Jul-04 05:26N 40°43' W 074°03'0 0.0
2018-Jul-04 04:59N 40°43' W 074°03'0 0.0
2018-Jul-04 04:29N 40°43' W 074°03'0 0.0
2018-Jul-04 03:59N 40°43' W 074°03'0 0.0
2018-Jul-04 03:29N 40°43' W 074°03'0 0.0
2018-Jul-04 02:59N 40°43' W 074°03'0 0.0
2018-Jul-04 02:29N 40°43' W 074°03'0 0.0
2018-Jul-04 01:59N 40°43' W 074°03'0 0.0
2018-Jul-04 01:29N 40°43' W 074°03'0 0.0
2018-Jul-04 00:59N 40°43' W 074°03'0 0.0
2018-Jul-04 00:29N 40°43' W 074°03'0 0.0
2018-Jul-03 23:59N 40°43' W 074°03'0 0.0
2018-Jul-03 23:29N 40°43' W 074°03'0 0.0
2018-Jul-03 22:59N 40°43' W 074°03'0 0.0
2018-Jul-03 22:29N 40°43' W 074°03'0 0.0
2018-Jul-03 21:59N 40°43' W 074°03'0 0.0
2018-Jul-03 21:29N 40°43' W 074°03'0 0.0
2018-Jul-03 20:59N 40°43' W 074°03'0 0.0
2018-Jul-03 20:29N 40°43' W 074°03'0 0.0
2018-Jul-03 19:59N 40°43' W 074°03'0 0.0
2018-Jul-03 19:29N 40°43' W 074°03'0 0.0
2018-Jul-03 18:59N 40°43' W 074°03'0 0.0
2018-Jul-03 18:29N 40°43' W 074°03'0 0.0
2018-Jul-03 17:53N 40°43' W 074°03'0 0.0
2018-Jul-03 17:29N 40°43' W 074°03'0 0.0
2018-Jul-03 16:59N 40°43' W 074°03'0 0.0
2018-Jul-03 16:29N 40°43' W 074°03'0 0.0
2018-Jul-03 15:59N 40°43' W 074°03'0 0.0
2018-Jul-03 15:29N 40°43' W 074°03'0 0.0
2018-Jul-03 14:59N 40°43' W 074°03'0 0.0
2018-Jul-03 14:29N 40°43' W 074°03'0 0.0
2018-Jul-03 13:59N 40°43' W 074°03'0 0.0
2018-Jul-03 13:26N 40°43' W 074°03'0 0.0
2018-Jul-03 12:59N 40°43' W 074°03'0 0.0
2018-Jul-03 12:29N 40°43' W 074°03'0 0.0
2018-Jul-03 11:59N 40°43' W 074°03'0 0.0
2018-Jul-03 11:29N 40°43' W 074°03'0 0.0
2018-Jul-03 10:59N 40°43' W 074°03'0 0.0
2018-Jul-03 10:29N 40°43' W 074°03'0 0.0
2018-Jul-03 09:58N 40°43' W 074°03'0 0.0
2018-Jul-03 09:29N 40°43' W 074°03'0 0.0
2018-Jul-03 08:58N 40°43' W 074°03'0 0.0
2018-Jul-03 08:28N 40°43' W 074°03'0 0.0
2018-Jul-03 07:58N 40°43' W 074°03'0 0.0
2018-Jul-03 07:25N 40°43' W 074°03'0 0.0
2018-Jul-03 06:58N 40°43' W 074°03'0 0.0
2018-Jul-03 06:28N 40°43' W 074°03'0 0.0
2018-Jul-03 05:58N 40°43' W 074°03'0 0.0
2018-Jul-03 05:28N 40°43' W 074°03'0 0.0
2018-Jul-03 04:55N 40°43' W 074°03'0 0.0
2018-Jul-03 04:28N 40°43' W 074°03'0 0.0
2018-Jul-03 03:58N 40°43' W 074°03'0 0.0
2018-Jul-03 03:28N 40°43' W 074°03'0 0.0
2018-Jul-03 02:58N 40°43' W 074°03'0 0.0
2018-Jul-03 02:28N 40°43' W 074°03'0 0.0
2018-Jul-03 01:58N 40°43' W 074°03'0 0.0
2018-Jul-03 01:28N 40°43' W 074°03'0 0.0
2018-Jul-03 00:58N 40°43' W 074°03'0 0.0
2018-Jul-03 00:28N 40°43' W 074°03'0 0.0
2018-Jul-02 23:58N 40°43' W 074°03'0 0.0
2018-Jul-02 23:28N 40°43' W 074°03'0 0.0
2018-Jul-02 22:58N 40°43' W 074°03'0 0.0
2018-Jul-02 22:28N 40°43' W 074°03'0 0.0
2018-Jul-02 21:58N 40°43' W 074°03'0 0.0
2018-Jul-02 21:28N 40°43' W 074°03'0 0.0
2018-Jul-02 21:00N 40°43' W 074°03'4 5.2
2018-Jul-02 20:19N 40°46' W 074°00'3 8.6
2018-Jul-02 20:00N 40°43' W 074°01'1 2.0
2018-Jul-02 19:30N 40°42' W 074°02'1 1.1
2018-Jul-02 18:59N 40°43' W 074°02'0 0.0
2018-Jul-02 18:29N 40°43' W 074°02'1 1.1
2018-Jul-02 18:00N 40°43' W 074°02'5518.4
2018-Jul-02 15:01N 39°48' W 073°60'219.7
2018-Jul-02 14:56N 39°46' W 074°00'919.8
2018-Jul-02 14:30N 39°38' W 074°05'22 2.7
2018-Jul-02 06:21N 39°23' W 074°26'0 0.0
2018-Jul-02 05:57N 39°23' W 074°26'0 0.0
2018-Jul-02 05:27N 39°23' W 074°26'0 0.0
2018-Jul-02 04:57N 39°23' W 074°26'0 0.0
2018-Jul-02 04:21N 39°23' W 074°26'0 0.0
2018-Jul-02 03:51N 39°23' W 074°26'0 0.0
2018-Jul-01 06:46N 39°23' W 074°26'0 0.0
2018-Jul-01 05:40N 39°23' W 074°26'40 2.9
2018-Jun-30 15:40N 38°53' W 075°01'718.4
2018-Jun-30 15:18N 38°57' W 075°07'618.1
2018-Jun-30 14:58N 39°03' W 075°10'817.7
2018-Jun-30 14:30N 39°10' W 075°16'1018.3
2018-Jun-30 13:57N 39°18' W 075°23'818.9
2018-Jun-30 13:30N 39°25' W 075°31'917.7
2018-Jun-30 13:00N 39°33' W 075°33'815.2
2018-Jun-30 12:30N 39°33' W 075°42'5 9.6
2018-Jun-30 12:00N 39°32' W 075°49'0 0.5
2018-Jun-30 11:28N 39°32' W 075°49'0 0.0
2018-Jun-30 10:58N 39°32' W 075°49'0 0.0
2018-Jun-30 10:28N 39°32' W 075°49'0 0.0
2018-Jun-30 09:58N 39°32' W 075°49'0 0.0
2018-Jun-30 09:28N 39°32' W 075°49'0 0.0
2018-Jun-30 08:58N 39°32' W 075°49'0 0.0
2018-Jun-30 08:28N 39°32' W 075°49'0 0.0
2018-Jun-30 07:58N 39°32' W 075°49'0 0.0
2018-Jun-30 07:28N 39°32' W 075°49'0 0.0
2018-Jun-30 06:58N 39°32' W 075°49'0 0.0
2018-Jun-30 06:28N 39°32' W 075°49'0 0.0
2018-Jun-30 05:58N 39°32' W 075°49'0 0.0
2018-Jun-30 05:28N 39°32' W 075°49'0 0.0
2018-Jun-30 04:55N 39°32' W 075°49'0 0.0
2018-Jun-30 04:28N 39°32' W 075°49'0 0.0
2018-Jun-30 03:58N 39°32' W 075°49'0 0.0
2018-Jun-30 03:25N 39°32' W 075°49'0 0.0
2018-Jun-30 02:58N 39°32' W 075°49'0 0.0
2018-Jun-30 02:28N 39°32' W 075°49'0 0.0
2018-Jun-30 01:58N 39°32' W 075°49'0 0.0
2018-Jun-30 01:28N 39°32' W 075°49'0 0.0
2018-Jun-30 00:58N 39°32' W 075°49'0 0.0
2018-Jun-30 00:28N 39°32' W 075°49'0 0.0
2018-Jun-29 23:58N 39°32' W 075°49'0 0.0
2018-Jun-29 23:28N 39°32' W 075°49'0 0.0
2018-Jun-29 22:58N 39°32' W 075°49'0 0.1
2018-Jun-29 22:28N 39°32' W 075°49'0 0.0
2018-Jun-29 21:58N 39°32' W 075°49'0 0.0
2018-Jun-29 21:28N 39°32' W 075°49'1 2.0
2018-Jun-29 21:00N 39°32' W 075°50'612.5
2018-Jun-29 20:30N 39°29' W 075°57'3018.1
2018-Jun-29 18:52N 39°11' W 076°28'615.0
2018-Jun-29 18:29N 39°15' W 076°34'3 5.2
2018-Jun-29 17:59N 39°17' W 076°36'0 0.0
2018-Jun-29 17:26N 39°17' W 076°36'0 0.0
2018-Jun-29 16:59N 39°17' W 076°36'0 0.0
2018-Jun-29 16:29N 39°17' W 076°36'0 0.0
2018-Jun-29 15:56N 39°17' W 076°36'0 0.0
2018-Jun-29 15:29N 39°17' W 076°36'0 0.0
2018-Jun-29 14:59N 39°17' W 076°36'0 0.0
2018-Jun-29 14:23N 39°17' W 076°36'0 0.0
2018-Jun-29 13:59N 39°17' W 076°36'0 0.0
2018-Jun-29 13:26N 39°17' W 076°36'0 0.0
2018-Jun-29 12:56N 39°17' W 076°36'0 0.0
2018-Jun-29 12:29N 39°17' W 076°36'0 0.0
2018-Jun-29 11:59N 39°17' W 076°36'0 0.0
2018-Jun-29 11:29N 39°17' W 076°36'0 0.0
2018-Jun-29 10:56N 39°17' W 076°36'0 0.0
2018-Jun-29 10:29N 39°17' W 076°36'0 0.0
2018-Jun-29 09:59N 39°17' W 076°36'0 0.0
2018-Jun-29 09:29N 39°17' W 076°36'0 0.0
2018-Jun-29 08:59N 39°17' W 076°36'0 0.0
2018-Jun-29 08:29N 39°17' W 076°36'0 0.0
2018-Jun-29 07:59N 39°17' W 076°36'0 0.0
2018-Jun-29 07:26N 39°17' W 076°36'0 0.0
2018-Jun-29 06:59N 39°17' W 076°36'0 0.0
2018-Jun-29 06:29N 39°17' W 076°36'0 0.0
2018-Jun-29 05:59N 39°17' W 076°36'0 0.0
2018-Jun-29 05:26N 39°17' W 076°36'0 0.0
2018-Jun-29 04:59N 39°17' W 076°36'0 0.0
2018-Jun-29 04:29N 39°17' W 076°36'0 0.0
2018-Jun-29 03:59N 39°17' W 076°36'0 0.0
2018-Jun-29 03:29N 39°17' W 076°36'0 0.0
2018-Jun-29 02:59N 39°17' W 076°36'0 0.0
2018-Jun-29 02:29N 39°17' W 076°36'0 0.0
2018-Jun-29 01:59N 39°17' W 076°36'0 0.0
2018-Jun-29 01:29N 39°17' W 076°36'0 0.0
2018-Jun-29 00:59N 39°17' W 076°36'0 0.0
2018-Jun-29 00:29N 39°17' W 076°36'0 0.0
2018-Jun-28 23:59N 39°17' W 076°36'0 0.0
2018-Jun-28 23:29N 39°17' W 076°36'0 0.0
2018-Jun-28 22:59N 39°17' W 076°36'0 0.0
2018-Jun-28 22:29N 39°17' W 076°36'0 0.0
2018-Jun-28 21:59N 39°17' W 076°36'0 0.0
2018-Jun-28 21:26N 39°17' W 076°36'0 0.0
2018-Jun-28 20:59N 39°17' W 076°36'0 0.0
2018-Jun-28 20:29N 39°17' W 076°36'0 0.0
2018-Jun-28 19:56N 39°17' W 076°36'0 0.0
2018-Jun-28 19:26N 39°17' W 076°36'0 0.0
2018-Jun-28 18:59N 39°17' W 076°36'0 0.0
2018-Jun-28 18:29N 39°17' W 076°36'0 0.0
2018-Jun-28 17:59N 39°17' W 076°36'0 0.0
2018-Jun-28 17:29N 39°17' W 076°36'0 0.0
2018-Jun-28 16:59N 39°17' W 076°36'0 0.0
2018-Jun-28 16:29N 39°17' W 076°36'0 0.0
2018-Jun-28 15:59N 39°17' W 076°36'0 0.0
2018-Jun-28 15:26N 39°17' W 076°36'  

Dump ship's entire track history